sensor_id;sensor_type;location;lat;lon;timestamp;P1;durP1;ratioP1;P2;durP2;ratioP2
11004;SDS011;5555;59.622;16.556;2023-04-09T00:01:06;5.17;;;2.37;;
11004;SDS011;5555;59.622;16.556;2023-04-09T00:03:36;6.73;;;2.87;;
11004;SDS011;5555;59.622;16.556;2023-04-09T00:06:03;4.80;;;2.30;;
11004;SDS011;5555;59.622;16.556;2023-04-09T00:08:29;8.10;;;2.93;;
11004;SDS011;5555;59.622;16.556;2023-04-09T00:10:56;10.50;;;2.80;;
11004;SDS011;5555;59.622;16.556;2023-04-09T00:13:22;4.70;;;2.50;;
11004;SDS011;5555;59.622;16.556;2023-04-09T00:15:48;6.03;;;2.37;;
11004;SDS011;5555;59.622;16.556;2023-04-09T00:18:13;7.83;;;2.77;;
11004;SDS011;5555;59.622;16.556;2023-04-09T00:20:39;7.60;;;2.70;;
11004;SDS011;5555;59.622;16.556;2023-04-09T00:23:05;5.47;;;2.50;;
11004;SDS011;5555;59.622;16.556;2023-04-09T00:25:31;5.33;;;2.47;;
11004;SDS011;5555;59.622;16.556;2023-04-09T00:27:57;5.33;;;2.30;;
11004;SDS011;5555;59.622;16.556;2023-04-09T00:30:23;9.60;;;2.70;;
11004;SDS011;5555;59.622;16.556;2023-04-09T00:32:48;5.80;;;2.80;;
11004;SDS011;5555;59.622;16.556;2023-04-09T00:35:14;6.33;;;2.00;;
11004;SDS011;5555;59.622;16.556;2023-04-09T00:37:41;5.13;;;2.40;;
11004;SDS011;5555;59.622;16.556;2023-04-09T00:40:07;3.40;;;2.20;;
11004;SDS011;5555;59.622;16.556;2023-04-09T00:42:34;7.13;;;2.60;;
11004;SDS011;5555;59.622;16.556;2023-04-09T00:45:00;4.03;;;2.40;;
11004;SDS011;5555;59.622;16.556;2023-04-09T00:47:26;2.60;;;2.10;;
11004;SDS011;5555;59.622;16.556;2023-04-09T00:49:53;5.23;;;2.30;;
11004;SDS011;5555;59.622;16.556;2023-04-09T00:52:19;4.83;;;2.10;;
11004;SDS011;5555;59.622;16.556;2023-04-09T00:54:46;6.67;;;2.40;;
11004;SDS011;5555;59.622;16.556;2023-04-09T00:57:14;5.20;;;2.40;;
11004;SDS011;5555;59.622;16.556;2023-04-09T00:59:39;6.77;;;2.07;;
11004;SDS011;5555;59.622;16.556;2023-04-09T01:02:06;2.97;;;2.20;;
11004;SDS011;5555;59.622;16.556;2023-04-09T01:04:32;5.53;;;2.27;;
11004;SDS011;5555;59.622;16.556;2023-04-09T01:07:10;3.80;;;2.30;;
11004;SDS011;5555;59.622;16.556;2023-04-09T01:09:50;5.57;;;2.60;;
11004;SDS011;5555;59.622;16.556;2023-04-09T01:12:30;4.57;;;2.43;;
11004;SDS011;5555;59.622;16.556;2023-04-09T01:17:33;4.77;;;2.43;;
11004;SDS011;5555;59.622;16.556;2023-04-09T01:20:27;3.80;;;2.10;;
11004;SDS011;5555;59.622;16.556;2023-04-09T01:23:35;3.10;;;2.03;;
11004;SDS011;5555;59.622;16.556;2023-04-09T01:28:55;4.63;;;2.13;;
11004;SDS011;5555;59.622;16.556;2023-04-09T01:31:25;6.50;;;2.80;;
11004;SDS011;5555;59.622;16.556;2023-04-09T01:33:54;6.60;;;2.47;;
11004;SDS011;5555;59.622;16.556;2023-04-09T01:36:21;12.00;;;2.77;;
11004;SDS011;5555;59.622;16.556;2023-04-09T01:38:49;14.13;;;3.17;;
11004;SDS011;5555;59.622;16.556;2023-04-09T01:41:17;9.30;;;3.13;;
11004;SDS011;5555;59.622;16.556;2023-04-09T01:43:45;13.70;;;4.03;;
11004;SDS011;5555;59.622;16.556;2023-04-09T01:46:19;30.63;;;6.20;;
11004;SDS011;5555;59.622;16.556;2023-04-09T01:48:46;11.13;;;3.60;;
11004;SDS011;5555;59.622;16.556;2023-04-09T01:51:12;14.30;;;3.87;;
11004;SDS011;5555;59.622;16.556;2023-04-09T01:53:39;11.83;;;3.57;;
11004;SDS011;5555;59.622;16.556;2023-04-09T01:56:05;7.47;;;2.90;;
11004;SDS011;5555;59.622;16.556;2023-04-09T01:58:32;9.90;;;2.70;;
11004;SDS011;5555;59.622;16.556;2023-04-09T02:01:08;4.70;;;2.40;;
11004;SDS011;5555;59.622;16.556;2023-04-09T02:03:45;6.87;;;2.33;;
11004;SDS011;5555;59.622;16.556;2023-04-09T02:06:31;7.70;;;2.13;;
11004;SDS011;5555;59.622;16.556;2023-04-09T02:09:02;4.90;;;2.30;;
11004;SDS011;5555;59.622;16.556;2023-04-09T02:11:32;8.33;;;2.43;;
11004;SDS011;5555;59.622;16.556;2023-04-09T02:14:00;10.80;;;2.47;;
11004;SDS011;5555;59.622;16.556;2023-04-09T02:16:28;4.83;;;2.00;;
11004;SDS011;5555;59.622;16.556;2023-04-09T02:18:56;5.13;;;2.33;;
11004;SDS011;5555;59.622;16.556;2023-04-09T02:21:22;4.47;;;2.23;;
11004;SDS011;5555;59.622;16.556;2023-04-09T02:23:48;8.27;;;2.40;;
11004;SDS011;5555;59.622;16.556;2023-04-09T02:26:14;4.93;;;2.17;;
11004;SDS011;5555;59.622;16.556;2023-04-09T02:28:40;2.50;;;1.90;;
11004;SDS011;5555;59.622;16.556;2023-04-09T02:31:05;3.90;;;1.93;;
11004;SDS011;5555;59.622;16.556;2023-04-09T02:33:31;4.23;;;1.90;;
11004;SDS011;5555;59.622;16.556;2023-04-09T02:35:56;2.53;;;1.50;;
11004;SDS011;5555;59.622;16.556;2023-04-09T02:38:23;3.83;;;2.20;;
11004;SDS011;5555;59.622;16.556;2023-04-09T02:40:48;2.87;;;1.87;;
11004;SDS011;5555;59.622;16.556;2023-04-09T02:43:14;2.57;;;2.10;;
11004;SDS011;5555;59.622;16.556;2023-04-09T02:45:39;2.73;;;1.80;;
11004;SDS011;5555;59.622;16.556;2023-04-09T02:48:05;2.37;;;1.80;;
11004;SDS011;5555;59.622;16.556;2023-04-09T02:50:31;4.70;;;2.00;;
11004;SDS011;5555;59.622;16.556;2023-04-09T02:52:56;2.90;;;1.60;;
11004;SDS011;5555;59.622;16.556;2023-04-09T02:55:22;5.67;;;2.00;;
11004;SDS011;5555;59.622;16.556;2023-04-09T02:57:47;2.70;;;1.60;;
11004;SDS011;5555;59.622;16.556;2023-04-09T03:00:13;3.67;;;1.80;;
11004;SDS011;5555;59.622;16.556;2023-04-09T03:02:39;5.40;;;2.17;;
11004;SDS011;5555;59.622;16.556;2023-04-09T03:05:05;4.03;;;1.60;;
11004;SDS011;5555;59.622;16.556;2023-04-09T03:07:30;6.27;;;2.23;;
11004;SDS011;5555;59.622;16.556;2023-04-09T03:09:56;2.87;;;1.67;;
11004;SDS011;5555;59.622;16.556;2023-04-09T03:12:22;3.53;;;2.13;;
11004;SDS011;5555;59.622;16.556;2023-04-09T03:14:47;2.50;;;1.60;;
11004;SDS011;5555;59.622;16.556;2023-04-09T03:17:13;4.87;;;1.90;;
11004;SDS011;5555;59.622;16.556;2023-04-09T03:19:39;3.33;;;1.60;;
11004;SDS011;5555;59.622;16.556;2023-04-09T03:22:04;2.30;;;1.50;;
11004;SDS011;5555;59.622;16.556;2023-04-09T03:24:30;1.40;;;1.30;;
11004;SDS011;5555;59.622;16.556;2023-04-09T03:26:57;1.90;;;1.20;;
11004;SDS011;5555;59.622;16.556;2023-04-09T03:29:22;2.03;;;1.50;;
11004;SDS011;5555;59.622;16.556;2023-04-09T03:31:48;2.93;;;1.47;;
11004;SDS011;5555;59.622;16.556;2023-04-09T03:34:13;1.13;;;1.03;;
11004;SDS011;5555;59.622;16.556;2023-04-09T03:36:39;1.50;;;1.30;;
11004;SDS011;5555;59.622;16.556;2023-04-09T03:39:05;1.60;;;1.37;;
11004;SDS011;5555;59.622;16.556;2023-04-09T03:41:30;1.60;;;1.37;;
11004;SDS011;5555;59.622;16.556;2023-04-09T03:43:56;2.57;;;1.53;;
11004;SDS011;5555;59.622;16.556;2023-04-09T03:46:21;2.70;;;1.30;;
11004;SDS011;5555;59.622;16.556;2023-04-09T03:48:47;3.13;;;1.60;;
11004;SDS011;5555;59.622;16.556;2023-04-09T03:51:14;2.73;;;1.73;;
11004;SDS011;5555;59.622;16.556;2023-04-09T03:53:40;2.17;;;1.67;;
11004;SDS011;5555;59.622;16.556;2023-04-09T03:56:06;2.97;;;1.60;;
11004;SDS011;5555;59.622;16.556;2023-04-09T03:58:32;1.80;;;1.70;;
11004;SDS011;5555;59.622;16.556;2023-04-09T04:00:58;2.17;;;1.50;;
11004;SDS011;5555;59.622;16.556;2023-04-09T04:03:24;2.03;;;1.57;;
11004;SDS011;5555;59.622;16.556;2023-04-09T04:05:50;2.07;;;1.50;;
11004;SDS011;5555;59.622;16.556;2023-04-09T04:08:15;1.53;;;1.30;;
11004;SDS011;5555;59.622;16.556;2023-04-09T04:10:41;2.07;;;1.50;;
11004;SDS011;5555;59.622;16.556;2023-04-09T04:13:06;2.17;;;1.53;;
11004;SDS011;5555;59.622;16.556;2023-04-09T04:15:32;1.90;;;1.50;;
11004;SDS011;5555;59.622;16.556;2023-04-09T04:18:03;3.03;;;1.70;;
11004;SDS011;5555;59.622;16.556;2023-04-09T04:20:31;1.97;;;1.10;;
11004;SDS011;5555;59.622;16.556;2023-04-09T04:22:57;2.17;;;1.60;;
11004;SDS011;5555;59.622;16.556;2023-04-09T04:25:22;1.83;;;1.40;;
11004;SDS011;5555;59.622;16.556;2023-04-09T04:27:48;2.47;;;1.60;;
11004;SDS011;5555;59.622;16.556;2023-04-09T04:30:14;2.60;;;1.47;;
11004;SDS011;5555;59.622;16.556;2023-04-09T04:32:40;2.67;;;1.20;;
11004;SDS011;5555;59.622;16.556;2023-04-09T04:35:06;3.40;;;1.53;;
11004;SDS011;5555;59.622;16.556;2023-04-09T04:37:31;2.47;;;1.40;;
11004;SDS011;5555;59.622;16.556;2023-04-09T04:39:59;3.07;;;1.70;;
11004;SDS011;5555;59.622;16.556;2023-04-09T04:42:25;2.77;;;1.63;;
11004;SDS011;5555;59.622;16.556;2023-04-09T04:44:51;3.97;;;1.73;;
11004;SDS011;5555;59.622;16.556;2023-04-09T04:47:17;2.27;;;1.30;;
11004;SDS011;5555;59.622;16.556;2023-04-09T04:49:43;3.37;;;1.50;;
11004;SDS011;5555;59.622;16.556;2023-04-09T04:52:09;2.23;;;1.37;;
11004;SDS011;5555;59.622;16.556;2023-04-09T04:54:35;2.27;;;1.40;;
11004;SDS011;5555;59.622;16.556;2023-04-09T04:57:01;2.50;;;1.67;;
11004;SDS011;5555;59.622;16.556;2023-04-09T04:59:27;1.57;;;1.40;;
11004;SDS011;5555;59.622;16.556;2023-04-09T05:01:52;2.33;;;1.30;;
11004;SDS011;5555;59.622;16.556;2023-04-09T05:04:18;2.80;;;1.63;;
11004;SDS011;5555;59.622;16.556;2023-04-09T05:06:44;3.37;;;1.50;;
11004;SDS011;5555;59.622;16.556;2023-04-09T05:09:10;1.50;;;1.33;;
11004;SDS011;5555;59.622;16.556;2023-04-09T05:11:35;3.47;;;1.70;;
11004;SDS011;5555;59.622;16.556;2023-04-09T05:14:01;3.57;;;1.70;;
11004;SDS011;5555;59.622;16.556;2023-04-09T05:16:27;1.83;;;1.50;;
11004;SDS011;5555;59.622;16.556;2023-04-09T05:18:53;2.60;;;1.47;;
11004;SDS011;5555;59.622;16.556;2023-04-09T05:21:18;2.13;;;1.20;;
11004;SDS011;5555;59.622;16.556;2023-04-09T05:23:44;1.77;;;1.40;;
11004;SDS011;5555;59.622;16.556;2023-04-09T05:26:10;2.90;;;1.30;;
11004;SDS011;5555;59.622;16.556;2023-04-09T05:28:36;4.57;;;1.50;;
11004;SDS011;5555;59.622;16.556;2023-04-09T05:31:01;2.00;;;1.20;;
11004;SDS011;5555;59.622;16.556;2023-04-09T05:33:27;1.50;;;1.33;;
11004;SDS011;5555;59.622;16.556;2023-04-09T05:35:53;2.23;;;1.60;;
11004;SDS011;5555;59.622;16.556;2023-04-09T05:38:18;2.20;;;1.20;;
11004;SDS011;5555;59.622;16.556;2023-04-09T05:40:44;1.53;;;1.33;;
11004;SDS011;5555;59.622;16.556;2023-04-09T05:43:10;3.43;;;1.50;;
11004;SDS011;5555;59.622;16.556;2023-04-09T05:45:36;2.03;;;1.47;;
11004;SDS011;5555;59.622;16.556;2023-04-09T05:48:02;2.27;;;1.67;;
11004;SDS011;5555;59.622;16.556;2023-04-09T05:50:27;2.10;;;1.40;;
11004;SDS011;5555;59.622;16.556;2023-04-09T05:52:53;3.17;;;1.30;;
11004;SDS011;5555;59.622;16.556;2023-04-09T05:55:19;1.50;;;1.40;;
11004;SDS011;5555;59.622;16.556;2023-04-09T05:57:44;1.53;;;1.37;;
11004;SDS011;5555;59.622;16.556;2023-04-09T06:00:10;4.33;;;1.40;;
11004;SDS011;5555;59.622;16.556;2023-04-09T06:02:36;3.20;;;1.50;;
11004;SDS011;5555;59.622;16.556;2023-04-09T06:05:01;4.77;;;1.37;;
11004;SDS011;5555;59.622;16.556;2023-04-09T06:07:27;2.73;;;1.40;;
11004;SDS011;5555;59.622;16.556;2023-04-09T06:09:54;4.30;;;1.83;;
11004;SDS011;5555;59.622;16.556;2023-04-09T06:12:20;2.37;;;1.23;;
11004;SDS011;5555;59.622;16.556;2023-04-09T06:14:49;2.70;;;1.57;;
11004;SDS011;5555;59.622;16.556;2023-04-09T06:17:14;3.97;;;1.70;;
11004;SDS011;5555;59.622;16.556;2023-04-09T06:19:40;2.47;;;1.60;;
11004;SDS011;5555;59.622;16.556;2023-04-09T06:22:08;2.33;;;1.57;;
11004;SDS011;5555;59.622;16.556;2023-04-09T06:24:35;1.73;;;1.40;;
11004;SDS011;5555;59.622;16.556;2023-04-09T06:27:01;3.80;;;1.73;;
11004;SDS011;5555;59.622;16.556;2023-04-09T06:29:26;1.60;;;1.23;;
11004;SDS011;5555;59.622;16.556;2023-04-09T06:31:52;1.93;;;1.50;;
11004;SDS011;5555;59.622;16.556;2023-04-09T06:34:18;2.40;;;1.50;;
11004;SDS011;5555;59.622;16.556;2023-04-09T06:36:43;3.77;;;1.33;;
11004;SDS011;5555;59.622;16.556;2023-04-09T06:39:09;2.43;;;1.40;;
11004;SDS011;5555;59.622;16.556;2023-04-09T06:41:35;2.30;;;1.47;;
11004;SDS011;5555;59.622;16.556;2023-04-09T06:44:01;3.30;;;1.50;;
11004;SDS011;5555;59.622;16.556;2023-04-09T06:46:27;2.20;;;1.47;;
11004;SDS011;5555;59.622;16.556;2023-04-09T06:48:52;2.73;;;1.67;;
11004;SDS011;5555;59.622;16.556;2023-04-09T06:51:18;2.87;;;1.70;;
11004;SDS011;5555;59.622;16.556;2023-04-09T06:53:44;3.33;;;1.43;;
11004;SDS011;5555;59.622;16.556;2023-04-09T06:56:12;2.67;;;1.57;;
11004;SDS011;5555;59.622;16.556;2023-04-09T06:58:38;3.83;;;1.70;;
11004;SDS011;5555;59.622;16.556;2023-04-09T07:01:03;2.37;;;1.53;;
11004;SDS011;5555;59.622;16.556;2023-04-09T07:03:30;1.80;;;1.50;;
11004;SDS011;5555;59.622;16.556;2023-04-09T07:05:55;1.63;;;1.43;;
11004;SDS011;5555;59.622;16.556;2023-04-09T07:08:21;4.03;;;1.40;;
11004;SDS011;5555;59.622;16.556;2023-04-09T07:10:47;3.17;;;1.40;;
11004;SDS011;5555;59.622;16.556;2023-04-09T07:13:13;1.60;;;1.50;;
11004;SDS011;5555;59.622;16.556;2023-04-09T07:15:39;4.13;;;1.50;;
11004;SDS011;5555;59.622;16.556;2023-04-09T07:18:04;2.73;;;1.50;;
11004;SDS011;5555;59.622;16.556;2023-04-09T07:20:30;1.87;;;1.40;;
11004;SDS011;5555;59.622;16.556;2023-04-09T07:22:58;2.13;;;1.30;;
11004;SDS011;5555;59.622;16.556;2023-04-09T07:25:24;4.00;;;1.43;;
11004;SDS011;5555;59.622;16.556;2023-04-09T07:27:49;3.07;;;1.33;;
11004;SDS011;5555;59.622;16.556;2023-04-09T07:30:15;2.47;;;1.53;;
11004;SDS011;5555;59.622;16.556;2023-04-09T07:32:40;1.60;;;1.30;;
11004;SDS011;5555;59.622;16.556;2023-04-09T07:35:06;1.60;;;1.37;;
11004;SDS011;5555;59.622;16.556;2023-04-09T07:37:33;2.23;;;1.30;;
11004;SDS011;5555;59.622;16.556;2023-04-09T07:39:59;1.70;;;1.20;;
11004;SDS011;5555;59.622;16.556;2023-04-09T07:42:25;2.50;;;1.40;;
11004;SDS011;5555;59.622;16.556;2023-04-09T07:44:52;1.73;;;1.53;;
11004;SDS011;5555;59.622;16.556;2023-04-09T07:47:17;3.43;;;1.87;;
11004;SDS011;5555;59.622;16.556;2023-04-09T07:49:43;2.47;;;1.60;;
11004;SDS011;5555;59.622;16.556;2023-04-09T07:52:09;3.50;;;1.23;;
11004;SDS011;5555;59.622;16.556;2023-04-09T07:54:34;3.67;;;1.60;;
11004;SDS011;5555;59.622;16.556;2023-04-09T07:57:00;2.67;;;1.50;;
11004;SDS011;5555;59.622;16.556;2023-04-09T07:59:26;5.30;;;1.60;;
11004;SDS011;5555;59.622;16.556;2023-04-09T08:01:52;2.97;;;1.87;;
11004;SDS011;5555;59.622;16.556;2023-04-09T08:04:18;3.07;;;1.43;;
11004;SDS011;5555;59.622;16.556;2023-04-09T08:06:44;3.33;;;1.50;;
11004;SDS011;5555;59.622;16.556;2023-04-09T08:09:24;3.43;;;1.70;;
11004;SDS011;5555;59.622;16.556;2023-04-09T08:11:49;3.37;;;1.70;;
11004;SDS011;5555;59.622;16.556;2023-04-09T08:14:16;1.73;;;1.47;;
11004;SDS011;5555;59.622;16.556;2023-04-09T08:16:43;3.03;;;1.63;;
11004;SDS011;5555;59.622;16.556;2023-04-09T08:19:11;3.07;;;1.30;;
11004;SDS011;5555;59.622;16.556;2023-04-09T08:21:37;3.40;;;1.33;;
11004;SDS011;5555;59.622;16.556;2023-04-09T08:24:04;4.20;;;1.50;;
11004;SDS011;5555;59.622;16.556;2023-04-09T08:26:31;1.47;;;1.10;;
11004;SDS011;5555;59.622;16.556;2023-04-09T08:28:56;1.93;;;1.57;;
11004;SDS011;5555;59.622;16.556;2023-04-09T08:31:22;1.27;;;1.17;;
11004;SDS011;5555;59.622;16.556;2023-04-09T08:33:48;2.90;;;1.50;;
11004;SDS011;5555;59.622;16.556;2023-04-09T08:36:14;4.03;;;1.67;;
11004;SDS011;5555;59.622;16.556;2023-04-09T08:38:40;1.27;;;1.13;;
11004;SDS011;5555;59.622;16.556;2023-04-09T08:41:06;2.07;;;1.33;;
11004;SDS011;5555;59.622;16.556;2023-04-09T08:43:32;1.30;;;1.10;;
11004;SDS011;5555;59.622;16.556;2023-04-09T08:45:59;3.43;;;1.20;;
11004;SDS011;5555;59.622;16.556;2023-04-09T08:48:26;2.00;;;1.20;;
11004;SDS011;5555;59.622;16.556;2023-04-09T08:50:53;2.33;;;1.13;;
11004;SDS011;5555;59.622;16.556;2023-04-09T08:53:19;3.23;;;1.10;;
11004;SDS011;5555;59.622;16.556;2023-04-09T08:55:46;2.23;;;1.30;;
11004;SDS011;5555;59.622;16.556;2023-04-09T08:58:12;3.27;;;1.47;;
11004;SDS011;5555;59.622;16.556;2023-04-09T09:00:38;2.17;;;1.20;;
11004;SDS011;5555;59.622;16.556;2023-04-09T09:05:38;1.73;;;1.27;;
11004;SDS011;5555;59.622;16.556;2023-04-09T09:08:09;2.10;;;1.13;;
11004;SDS011;5555;59.622;16.556;2023-04-09T09:10:37;2.30;;;1.27;;
11004;SDS011;5555;59.622;16.556;2023-04-09T09:13:23;2.23;;;1.20;;
11004;SDS011;5555;59.622;16.556;2023-04-09T09:15:50;2.57;;;1.20;;
11004;SDS011;5555;59.622;16.556;2023-04-09T09:18:39;3.03;;;1.40;;
11004;SDS011;5555;59.622;16.556;2023-04-09T09:21:09;1.47;;;1.30;;
11004;SDS011;5555;59.622;16.556;2023-04-09T09:23:36;1.73;;;1.17;;
11004;SDS011;5555;59.622;16.556;2023-04-09T09:26:09;1.40;;;1.03;;
11004;SDS011;5555;59.622;16.556;2023-04-09T09:28:38;2.80;;;1.57;;
11004;SDS011;5555;59.622;16.556;2023-04-09T09:31:07;2.43;;;1.23;;
11004;SDS011;5555;59.622;16.556;2023-04-09T09:33:34;3.03;;;1.40;;
11004;SDS011;5555;59.622;16.556;2023-04-09T09:36:00;1.53;;;1.20;;
11004;SDS011;5555;59.622;16.556;2023-04-09T09:38:27;3.10;;;1.10;;
11004;SDS011;5555;59.622;16.556;2023-04-09T09:40:53;2.97;;;1.27;;
11004;SDS011;5555;59.622;16.556;2023-04-09T09:43:19;3.37;;;1.40;;
11004;SDS011;5555;59.622;16.556;2023-04-09T09:45:45;1.67;;;1.10;;
11004;SDS011;5555;59.622;16.556;2023-04-09T09:48:11;1.63;;;1.20;;
11004;SDS011;5555;59.622;16.556;2023-04-09T09:50:38;4.77;;;1.37;;
11004;SDS011;5555;59.622;16.556;2023-04-09T09:53:08;2.27;;;0.70;;
11004;SDS011;5555;59.622;16.556;2023-04-09T09:55:38;2.03;;;0.93;;
11004;SDS011;5555;59.622;16.556;2023-04-09T09:58:27;0.80;;;0.67;;
11004;SDS011;5555;59.622;16.556;2023-04-09T10:00:56;0.97;;;0.83;;
11004;SDS011;5555;59.622;16.556;2023-04-09T10:03:26;3.73;;;1.27;;
11004;SDS011;5555;59.622;16.556;2023-04-09T10:05:54;1.10;;;0.97;;
11004;SDS011;5555;59.622;16.556;2023-04-09T10:08:21;1.47;;;1.00;;
11004;SDS011;5555;59.622;16.556;2023-04-09T10:10:47;2.80;;;1.10;;
11004;SDS011;5555;59.622;16.556;2023-04-09T10:13:20;1.10;;;0.97;;
11004;SDS011;5555;59.622;16.556;2023-04-09T10:16:15;1.97;;;0.80;;
11004;SDS011;5555;59.622;16.556;2023-04-09T10:18:41;1.33;;;1.00;;
11004;SDS011;5555;59.622;16.556;2023-04-09T10:21:16;3.77;;;1.13;;
11004;SDS011;5555;59.622;16.556;2023-04-09T10:24:05;2.77;;;0.87;;
11004;SDS011;5555;59.622;16.556;2023-04-09T10:26:33;2.10;;;1.00;;
11004;SDS011;5555;59.622;16.556;2023-04-09T10:29:04;1.57;;;1.10;;
11004;SDS011;5555;59.622;16.556;2023-04-09T10:31:43;1.27;;;0.93;;
11004;SDS011;5555;59.622;16.556;2023-04-09T10:34:09;2.10;;;0.73;;
11004;SDS011;5555;59.622;16.556;2023-04-09T10:36:35;6.40;;;0.90;;
11004;SDS011;5555;59.622;16.556;2023-04-09T10:39:00;2.30;;;1.20;;
11004;SDS011;5555;59.622;16.556;2023-04-09T10:41:36;2.57;;;0.90;;
11004;SDS011;5555;59.622;16.556;2023-04-09T10:44:05;2.90;;;1.50;;
11004;SDS011;5555;59.622;16.556;2023-04-09T10:46:35;0.80;;;0.53;;
11004;SDS011;5555;59.622;16.556;2023-04-09T10:49:23;1.27;;;0.43;;
11004;SDS011;5555;59.622;16.556;2023-04-09T10:52:01;3.87;;;0.70;;
11004;SDS011;5555;59.622;16.556;2023-04-09T10:59:36;1.93;;;0.70;;
11004;SDS011;5555;59.622;16.556;2023-04-09T11:02:07;1.87;;;0.73;;
11004;SDS011;5555;59.622;16.556;2023-04-09T11:05:02;2.53;;;0.67;;
11004;SDS011;5555;59.622;16.556;2023-04-09T11:07:48;0.80;;;0.50;;
11004;SDS011;5555;59.622;16.556;2023-04-09T11:10:27;0.73;;;0.37;;
11004;SDS011;5555;59.622;16.556;2023-04-09T11:12:53;2.97;;;0.80;;
11004;SDS011;5555;59.622;16.556;2023-04-09T11:15:19;1.57;;;1.00;;
11004;SDS011;5555;59.622;16.556;2023-04-09T11:17:45;1.47;;;0.77;;
11004;SDS011;5555;59.622;16.556;2023-04-09T11:20:30;1.17;;;0.57;;
11004;SDS011;5555;59.622;16.556;2023-04-09T11:22:58;1.37;;;0.63;;
11004;SDS011;5555;59.622;16.556;2023-04-09T11:25:25;2.30;;;0.50;;
11004;SDS011;5555;59.622;16.556;2023-04-09T11:27:52;3.73;;;0.77;;
11004;SDS011;5555;59.622;16.556;2023-04-09T11:30:18;1.87;;;0.70;;
11004;SDS011;5555;59.622;16.556;2023-04-09T11:32:44;1.23;;;0.63;;
11004;SDS011;5555;59.622;16.556;2023-04-09T11:35:17;1.30;;;0.70;;
11004;SDS011;5555;59.622;16.556;2023-04-09T11:37:44;1.93;;;0.70;;
11004;SDS011;5555;59.622;16.556;2023-04-09T11:40:28;1.43;;;0.60;;
11004;SDS011;5555;59.622;16.556;2023-04-09T11:42:54;1.90;;;0.60;;
11004;SDS011;5555;59.622;16.556;2023-04-09T11:45:21;2.50;;;0.70;;
11004;SDS011;5555;59.622;16.556;2023-04-09T11:47:49;1.53;;;0.60;;
11004;SDS011;5555;59.622;16.556;2023-04-09T11:50:15;4.67;;;0.70;;
11004;SDS011;5555;59.622;16.556;2023-04-09T11:52:42;3.33;;;0.60;;
11004;SDS011;5555;59.622;16.556;2023-04-09T11:55:09;4.57;;;0.80;;
11004;SDS011;5555;59.622;16.556;2023-04-09T11:57:44;1.97;;;0.50;;
11004;SDS011;5555;59.622;16.556;2023-04-09T12:00:14;0.63;;;0.50;;
11004;SDS011;5555;59.622;16.556;2023-04-09T12:02:46;2.63;;;0.50;;
11004;SDS011;5555;59.622;16.556;2023-04-09T12:05:22;1.60;;;0.57;;
11004;SDS011;5555;59.622;16.556;2023-04-09T12:07:50;1.30;;;0.50;;
11004;SDS011;5555;59.622;16.556;2023-04-09T12:10:16;0.97;;;0.60;;
11004;SDS011;5555;59.622;16.556;2023-04-09T12:12:43;4.20;;;0.77;;
11004;SDS011;5555;59.622;16.556;2023-04-09T12:17:57;2.10;;;0.60;;
11004;SDS011;5555;59.622;16.556;2023-04-09T12:20:30;2.83;;;0.50;;
11004;SDS011;5555;59.622;16.556;2023-04-09T12:22:58;1.20;;;0.70;;
11004;SDS011;5555;59.622;16.556;2023-04-09T12:25:25;3.30;;;0.80;;
11004;SDS011;5555;59.622;16.556;2023-04-09T12:27:51;1.73;;;0.50;;
11004;SDS011;5555;59.622;16.556;2023-04-09T12:30:18;2.00;;;0.60;;
11004;SDS011;5555;59.622;16.556;2023-04-09T12:32:44;4.10;;;0.97;;
11004;SDS011;5555;59.622;16.556;2023-04-09T12:35:10;0.50;;;0.40;;
11004;SDS011;5555;59.622;16.556;2023-04-09T12:37:36;5.10;;;0.60;;
11004;SDS011;5555;59.622;16.556;2023-04-09T12:40:01;1.37;;;0.47;;
11004;SDS011;5555;59.622;16.556;2023-04-09T12:42:27;1.33;;;0.50;;
11004;SDS011;5555;59.622;16.556;2023-04-09T12:44:53;0.60;;;0.30;;
11004;SDS011;5555;59.622;16.556;2023-04-09T12:47:18;1.00;;;0.63;;
11004;SDS011;5555;59.622;16.556;2023-04-09T12:49:44;0.63;;;0.50;;
11004;SDS011;5555;59.622;16.556;2023-04-09T12:52:11;1.10;;;0.40;;
11004;SDS011;5555;59.622;16.556;2023-04-09T12:54:36;1.63;;;0.60;;
11004;SDS011;5555;59.622;16.556;2023-04-09T12:57:04;1.60;;;0.50;;
11004;SDS011;5555;59.622;16.556;2023-04-09T12:59:30;0.90;;;0.60;;
11004;SDS011;5555;59.622;16.556;2023-04-09T13:01:55;3.60;;;0.70;;
11004;SDS011;5555;59.622;16.556;2023-04-09T13:04:21;1.50;;;0.60;;
11004;SDS011;5555;59.622;16.556;2023-04-09T13:06:47;1.30;;;0.57;;
11004;SDS011;5555;59.622;16.556;2023-04-09T13:09:13;2.13;;;0.40;;
11004;SDS011;5555;59.622;16.556;2023-04-09T13:11:38;0.93;;;0.40;;
11004;SDS011;5555;59.622;16.556;2023-04-09T13:14:04;2.37;;;0.70;;
11004;SDS011;5555;59.622;16.556;2023-04-09T13:16:30;1.17;;;0.77;;
11004;SDS011;5555;59.622;16.556;2023-04-09T13:18:56;2.40;;;0.80;;
11004;SDS011;5555;59.622;16.556;2023-04-09T13:21:22;0.93;;;0.60;;
11004;SDS011;5555;59.622;16.556;2023-04-09T13:23:48;2.17;;;0.80;;
11004;SDS011;5555;59.622;16.556;2023-04-09T13:26:14;6.37;;;0.97;;
11004;SDS011;5555;59.622;16.556;2023-04-09T13:28:40;1.60;;;1.03;;
11004;SDS011;5555;59.622;16.556;2023-04-09T13:31:05;2.53;;;0.70;;
11004;SDS011;5555;59.622;16.556;2023-04-09T13:33:31;2.33;;;0.90;;
11004;SDS011;5555;59.622;16.556;2023-04-09T13:35:57;2.57;;;0.70;;
11004;SDS011;5555;59.622;16.556;2023-04-09T13:38:22;1.57;;;0.90;;
11004;SDS011;5555;59.622;16.556;2023-04-09T13:40:48;2.53;;;0.60;;
11004;SDS011;5555;59.622;16.556;2023-04-09T13:43:14;1.30;;;0.70;;
11004;SDS011;5555;59.622;16.556;2023-04-09T13:45:40;1.87;;;0.77;;
11004;SDS011;5555;59.622;16.556;2023-04-09T13:48:05;1.73;;;1.00;;
11004;SDS011;5555;59.622;16.556;2023-04-09T13:50:31;1.63;;;0.80;;
11004;SDS011;5555;59.622;16.556;2023-04-09T13:52:57;2.67;;;0.73;;
11004;SDS011;5555;59.622;16.556;2023-04-09T13:55:23;3.07;;;1.10;;
11004;SDS011;5555;59.622;16.556;2023-04-09T13:57:48;2.27;;;0.70;;
11004;SDS011;5555;59.622;16.556;2023-04-09T14:00:14;2.50;;;0.70;;
11004;SDS011;5555;59.622;16.556;2023-04-09T14:02:39;4.70;;;1.03;;
11004;SDS011;5555;59.622;16.556;2023-04-09T14:05:05;2.77;;;0.80;;
11004;SDS011;5555;59.622;16.556;2023-04-09T14:07:31;3.73;;;0.80;;
11004;SDS011;5555;59.622;16.556;2023-04-09T14:09:57;1.70;;;0.90;;
11004;SDS011;5555;59.622;16.556;2023-04-09T14:12:22;1.33;;;0.50;;
11004;SDS011;5555;59.622;16.556;2023-04-09T14:14:48;2.23;;;0.60;;
11004;SDS011;5555;59.622;16.556;2023-04-09T14:17:14;3.17;;;0.67;;
11004;SDS011;5555;59.622;16.556;2023-04-09T14:19:40;1.57;;;0.70;;
11004;SDS011;5555;59.622;16.556;2023-04-09T14:22:05;5.63;;;0.77;;
11004;SDS011;5555;59.622;16.556;2023-04-09T14:24:32;2.67;;;0.97;;
11004;SDS011;5555;59.622;16.556;2023-04-09T14:27:04;1.40;;;0.50;;
11004;SDS011;5555;59.622;16.556;2023-04-09T14:29:30;2.20;;;0.80;;
11004;SDS011;5555;59.622;16.556;2023-04-09T14:31:56;4.30;;;0.80;;
11004;SDS011;5555;59.622;16.556;2023-04-09T14:34:22;1.77;;;0.67;;
11004;SDS011;5555;59.622;16.556;2023-04-09T14:36:47;2.70;;;0.50;;
11004;SDS011;5555;59.622;16.556;2023-04-09T14:39:13;1.20;;;0.57;;
11004;SDS011;5555;59.622;16.556;2023-04-09T14:41:39;1.20;;;0.43;;
11004;SDS011;5555;59.622;16.556;2023-04-09T14:44:05;5.30;;;0.80;;
11004;SDS011;5555;59.622;16.556;2023-04-09T14:46:31;4.93;;;0.87;;
11004;SDS011;5555;59.622;16.556;2023-04-09T14:48:56;2.83;;;0.50;;
11004;SDS011;5555;59.622;16.556;2023-04-09T14:51:22;1.30;;;0.40;;
11004;SDS011;5555;59.622;16.556;2023-04-09T14:53:48;2.97;;;0.60;;
11004;SDS011;5555;59.622;16.556;2023-04-09T14:56:13;1.23;;;0.70;;
11004;SDS011;5555;59.622;16.556;2023-04-09T14:58:39;2.73;;;0.50;;
11004;SDS011;5555;59.622;16.556;2023-04-09T15:01:05;2.63;;;0.67;;
11004;SDS011;5555;59.622;16.556;2023-04-09T15:03:30;2.90;;;0.63;;
11004;SDS011;5555;59.622;16.556;2023-04-09T15:05:57;3.80;;;0.73;;